Time;durP1;ratioP1;P1;durP2;ratioP2;P2;SDS_P1;SDS_P2;PMS_P1;PMS_P2;Temp;Humidity;BMP_temperature;BMP_pressure;BME280_temperature;BME280_humidity;BME280_pressure;Samples;Min_cycle;Max_cycle;Signal;HPM_P1;HPM_P2
2023/06/18 00:01:07;;;;;;;6.32;3.88;;;17.00;85.30;;;15.80;71.94;99883.44;10420343;27;97486;-95
2023/06/18 00:06:10;;;;;;;6.22;3.40;;;16.90;86.00;;;15.59;72.74;99868.41;10435996;27;96560;-93
2023/06/18 00:11:17;;;;;;;3.65;3.05;;;16.80;87.00;;;15.61;73.35;99873.56;10408839;27;96520;-95
2023/06/18 00:16:29;;;;;;;4.28;3.85;;;16.70;87.80;;;15.59;73.49;99881.78;10403864;28;96613;-96
2023/06/18 00:21:33;;;;;;;4.78;3.35;;;16.60;88.00;;;15.56;72.96;99866.16;10415541;28;96383;-95
2023/06/18 00:26:49;;;;;;;3.53;3.03;;;16.70;88.40;;;15.71;72.07;99856.06;10390202;28;98488;-96
2023/06/18 00:31:52;;;;;;;5.05;3.28;;;16.80;88.50;;;15.98;70.95;99853.31;10382304;28;97852;-94
2023/06/18 00:36:57;;;;;;;4.43;3.40;;;17.00;87.80;;;16.23;69.96;99856.91;10384747;28;96712;-95
2023/06/18 00:42:00;;;;;;;3.83;2.88;;;17.20;87.00;;;16.31;68.96;99854.00;10382653;28;96532;-96
2023/06/18 00:47:06;;;;;;;5.45;3.25;;;17.40;86.40;;;16.42;68.52;99855.16;10403921;27;96640;-93
2023/06/18 00:52:14;;;;;;;6.47;3.40;;;17.50;85.90;;;16.48;68.07;99856.19;10419321;28;96551;-96
2023/06/18 00:57:35;;;;;;;4.97;3.05;;;17.60;85.70;;;16.56;68.15;99864.00;10426398;28;96607;-96
2023/06/18 01:02:45;;;;;;;3.03;2.72;;;17.60;85.80;;;16.52;68.07;99855.53;10423342;27;96632;-91
2023/06/18 01:07:50;;;;;;;4.75;2.95;;;17.60;86.20;;;16.54;68.11;99852.63;10446963;27;98003;-93
2023/06/18 01:12:57;;;;;;;3.90;3.05;;;17.60;85.70;;;16.46;68.37;99861.75;10446663;27;96617;-91
2023/06/18 01:18:06;;;;;;;4.00;3.42;;;17.50;85.80;;;16.40;68.62;99851.88;10435818;27;96596;-94
2023/06/18 01:23:27;;;;;;;4.22;3.25;;;17.50;86.20;;;16.43;68.53;99856.00;10425989;27;96668;-93
2023/06/18 01:28:58;;;;;;;3.80;2.90;;;17.40;86.20;;;16.47;68.70;99862.59;10406046;28;96622;-94
2023/06/18 01:34:04;;;;;;;4.22;2.97;;;17.50;86.20;;;16.48;68.90;99862.34;10407686;27;96695;-94
2023/06/18 01:39:26;;;;;;;3.70;2.90;;;17.60;86.30;;;16.50;68.85;99865.66;10401760;28;96662;-94
2023/06/18 01:44:30;;;;;;;4.65;3.15;;;17.60;86.30;;;16.40;69.03;99867.97;10413368;27;96634;-94
2023/06/18 01:49:35;;;;;;;5.63;3.50;;;17.60;86.50;;;16.35;69.00;99875.03;10409008;27;96625;-95
2023/06/18 01:54:49;;;;;;;4.05;3.10;;;17.40;86.60;;;16.26;68.59;99866.41;10388235;28;97084;-95
2023/06/18 01:59:53;;;;;;;3.90;3.10;;;17.40;86.70;;;16.27;68.44;99884.94;10407958;28;96744;-95
2023/06/18 02:04:58;;;;;;;3.40;2.65;;;17.40;86.70;;;16.27;68.96;99882.28;10399511;28;96620;-96
2023/06/18 02:10:02;;;;;;;4.47;3.22;;;17.40;86.70;;;16.07;69.42;99868.09;10413206;27;97346;-95
2023/06/18 02:15:07;;;;;;;3.83;2.90;;;17.30;87.10;;;16.01;69.86;99875.16;10404520;28;96641;-95
2023/06/18 02:20:11;;;;;;;4.10;3.28;;;17.20;87.30;;;16.01;70.49;99890.38;10401261;27;98057;-95
2023/06/18 02:25:19;;;;;;;8.70;4.25;;;17.10;87.60;;;15.77;71.11;99887.38;10426535;27;96597;-95
2023/06/18 02:30:24;;;;;;;3.60;3.00;;;17.00;87.90;;;15.77;71.65;99900.78;10407861;27;96576;-95
2023/06/18 02:35:29;;;;;;;4.82;3.38;;;16.90;88.50;;;15.62;71.93;99892.13;10410341;28;96632;-94
2023/06/18 02:40:33;;;;;;;3.95;3.05;;;16.80;88.70;;;15.56;72.05;99898.28;10406695;28;96843;-95
2023/06/18 02:45:37;;;;;;;5.60;3.40;;;16.80;88.80;;;15.57;72.24;99905.28;10401399;27;97242;-94
2023/06/18 02:50:40;;;;;;;5.28;3.22;;;16.70;88.90;;;15.46;72.73;99903.22;10408817;28;96706;-94
2023/06/18 02:55:44;;;;;;;6.13;3.03;;;16.70;89.30;;;15.44;73.13;99932.91;10391940;27;96500;-95
2023/06/18 03:00:47;;;;;;;4.75;3.30;;;16.60;89.50;;;15.26;74.17;99930.84;10405090;27;96655;-94
2023/06/18 03:05:51;;;;;;;6.00;3.97;;;16.40;90.10;;;15.10;74.58;99928.53;10421249;28;96835;-94
2023/06/18 03:10:55;;;;;;;4.55;3.03;;;16.30;90.40;;;15.02;75.33;99922.56;10404811;27;96501;-94
2023/06/18 03:15:59;;;;;;;5.40;3.38;;;16.20;90.60;;;15.02;76.58;99934.09;10398842;28;98046;-94
2023/06/18 03:21:03;;;;;;;4.13;3.47;;;16.20;90.90;;;14.92;76.42;99922.94;10397467;28;96891;-93
2023/06/18 03:26:09;;;;;;;4.72;3.45;;;16.10;91.10;;;15.13;75.91;99933.50;10402553;28;97321;-94
2023/06/18 03:31:13;;;;;;;4.90;2.95;;;16.20;91.10;;;15.33;74.82;99928.16;10418057;28;96541;-94
2023/06/18 03:36:17;;;;;;;4.75;2.97;;;16.40;90.90;;;15.61;73.88;99927.13;10375885;28;97092;-94
2023/06/18 03:41:22;;;;;;;3.90;2.90;;;16.70;90.70;;;15.81;72.91;99917.25;10396255;28;96733;-94
2023/06/18 03:46:26;;;;;;;3.53;2.88;;;16.90;90.50;;;16.07;72.27;99929.75;10399255;28;98597;-93
2023/06/18 03:51:29;;;;;;;4.82;2.90;;;17.20;90.40;;;16.18;72.88;99933.66;10396357;28;96679;-94
2023/06/18 03:56:33;;;;;;;4.90;3.28;;;17.30;90.40;;;16.26;73.22;99941.47;10400807;28;97892;-93
2023/06/18 04:01:37;;;;;;;4.50;3.55;;;17.40;90.60;;;16.29;74.08;99943.72;10400929;28;97483;-93
2023/06/18 04:06:41;;;;;;;6.32;3.88;;;17.40;90.80;;;16.28;74.70;99936.72;10391043;28;96834;-92
2023/06/18 04:11:45;;;;;;;3.70;2.90;;;17.40;91.10;;;16.37;74.99;99958.75;10382671;28;96470;-92
2023/06/18 04:16:50;;;;;;;5.45;3.40;;;17.40;91.10;;;16.42;74.96;99942.84;10422286;28;98638;-92
2023/06/18 04:21:54;;;;;;;5.10;2.95;;;17.50;91.30;;;16.62;75.18;99953.53;10418568;27;98346;-93
2023/06/18 04:26:57;;;;;;;4.13;2.72;;;17.60;91.30;;;16.78;74.84;99953.84;10401925;28;96686;-94
2023/06/18 04:32:02;;;;;;;4.32;3.35;;;17.80;91.30;;;16.96;75.61;99960.38;10385852;28;97880;-92
2023/06/18 04:37:06;;;;;;;4.88;2.88;;;18.00;91.50;;;17.05;75.64;99953.72;10405000;28;96738;-93
2023/06/18 04:42:11;;;;;;;4.70;3.42;;;18.10;91.50;;;17.17;75.26;99949.31;10396006;28;98112;-92
2023/06/18 04:47:15;;;;;;;5.78;4.38;;;18.20;91.60;;;17.24;75.95;99966.19;10389045;28;97490;-92
2023/06/18 04:52:19;;;;;;;8.27;4.35;;;18.30;91.90;;;17.29;76.97;99960.19;10391490;28;97392;-92
2023/06/18 04:57:23;;;;;;;6.28;3.83;;;18.30;92.20;;;17.36;76.75;99969.84;10419396;27;96566;-92
2023/06/18 05:02:27;;;;;;;10.15;4.97;;;18.40;92.30;;;17.50;77.63;99973.22;10422016;27;97371;-91
2023/06/18 05:07:33;;;;;;;4.95;3.40;;;18.50;92.60;;;17.67;77.18;99979.72;10422966;28;96833;-92
2023/06/18 05:12:38;;;;;;;5.68;3.50;;;18.70;92.50;;;17.85;73.74;99978.16;10394778;27;97878;-93
2023/06/18 05:17:41;;;;;;;3.63;2.80;;;18.90;92.00;;;18.03;72.37;99982.75;10396515;27;96705;-90
2023/06/18 05:22:45;;;;;;;4.90;3.38;;;19.10;91.70;;;18.26;71.06;99985.59;10406765;28;98973;-90
2023/06/18 05:27:49;;;;;;;3.55;2.78;;;19.30;91.10;;;18.50;70.58;99999.22;10396234;28;96612;-90
2023/06/18 05:32:53;;;;;;;3.55;3.05;;;19.50;91.10;;;18.65;69.66;99994.25;10407184;27;98356;-92
2023/06/18 05:37:57;;;;;;;4.43;3.15;;;19.70;90.80;;;18.92;68.92;100002.88;10399338;28;97280;-92
2023/06/18 05:43:00;;;;;;;3.92;3.13;;;19.90;90.60;;;19.10;68.39;100005.53;10401982;28;97993;-92
2023/06/18 05:48:08;;;;;;;3.08;2.72;;;20.10;90.50;;;19.30;67.21;100013.31;10417886;27;96695;-93
2023/06/18 05:53:12;;;;;;;3.60;3.05;;;20.30;90.00;;;19.50;66.79;100002.28;10395530;28;97464;-92
2023/06/18 05:58:15;;;;;;;3.45;2.80;;;20.50;90.00;;;19.69;65.31;99997.63;10405164;28;98034;-92
2023/06/18 06:03:19;;;;;;;3.30;2.60;;;20.70;88.90;;;19.94;62.69;100006.34;10415537;27;97450;-91
2023/06/18 06:08:23;;;;;;;5.82;2.47;;;20.90;87.10;;;20.16;59.86;99997.66;10378443;27;97776;-91
2023/06/18 06:13:26;;;;;;;3.30;2.72;;;21.20;85.10;;;20.45;56.56;100007.53;10394598;27;98126;-92
2023/06/18 06:18:30;;;;;;;2.88;2.30;;;21.40;82.30;;;20.66;56.95;100011.47;10401379;28;96632;-91
2023/06/18 06:23:34;;;;;;;2.83;2.22;;;21.60;81.70;;;20.89;55.08;100015.16;10397763;28;96769;-93
2023/06/18 06:28:40;;;;;;;3.13;2.35;;;21.80;79.80;;;21.07;54.78;100007.69;10388215;27;98359;-92
2023/06/18 06:33:44;;;;;;;4.47;2.55;;;22.10;79.50;;;21.25;52.87;100013.97;10411853;27;97605;-91
2023/06/18 06:38:48;;;;;;;2.95;2.40;;;22.20;77.20;;;21.34;52.22;100013.34;10415728;27;98426;-94
2023/06/18 06:43:52;;;;;;;2.92;2.38;;;22.30;76.60;;;21.44;51.41;100009.19;10399979;28;98083;-93
2023/06/18 06:48:55;;;;;;;2.35;2.10;;;22.50;75.90;;;21.68;51.92;100023.38;10384653;28;97630;-95
2023/06/18 06:53:59;;;;;;;4.00;2.75;;;22.60;75.50;;;21.83;51.92;100016.34;10393440;27;97095;-93
2023/06/18 06:59:03;;;;;;;3.40;2.33;;;22.80;76.00;;;22.08;50.85;100018.63;10417386;28;97001;-92
2023/06/18 07:04:07;;;;;;;6.07;2.70;;;23.10;74.90;;;22.23;48.15;100009.94;10367264;28;98290;-91
2023/06/18 07:09:11;;;;;;;3.20;2.17;;;23.30;72.60;;;22.32;45.80;99997.63;10393980;27;96889;-93
2023/06/18 07:14:15;;;;;;;2.75;2.00;;;23.40;70.00;;;22.44;46.12;100011.88;10394104;28;97470;-93
2023/06/18 07:19:19;;;;;;;3.38;1.90;;;23.40;69.10;;;22.50;45.27;99998.41;10414598;28;96686;-93
2023/06/18 07:24:23;;;;;;;2.75;2.05;;;23.50;68.20;;;22.58;44.89;99987.94;10403983;28;96757;-93
2023/06/18 07:29:26;;;;;;;2.33;1.80;;;23.60;67.50;;;22.73;43.91;100005.44;10391290;28;96942;-91
2023/06/18 07:34:30;;;;;;;2.58;1.60;;;23.80;66.40;;;22.85;42.69;99998.84;10396582;27;96874;-93
2023/06/18 07:39:34;;;;;;;2.80;1.63;;;23.80;64.80;;;23.10;42.56;100005.66;10405631;27;97525;-93
2023/06/18 07:44:38;;;;;;;2.97;1.77;;;24.00;64.50;;;23.16;42.35;99991.88;10395209;27;96817;-91
2023/06/18 07:49:42;;;;;;;9.02;1.98;;;24.10;63.80;;;23.22;42.64;99990.06;10412920;27;97123;-95
2023/06/18 07:54:45;;;;;;;3.50;1.80;;;24.20;64.50;;;23.32;42.10;99983.88;10398830;27;96674;-94
2023/06/18 07:59:49;;;;;;;4.07;2.03;;;24.30;63.50;;;23.42;42.89;99984.81;10378568;28;96530;-94
2023/06/18 08:04:53;;;;;;;4.70;2.05;;;24.40;64.10;;;23.57;42.88;99981.44;10405658;27;99735;-94
2023/06/18 08:09:57;;;;;;;3.78;2.00;;;24.50;64.00;;;23.68;42.52;99976.91;10444486;27;97602;-91
2023/06/18 08:15:00;;;;;;;34.97;8.63;;;24.70;63.70;;;23.86;42.70;99975.69;10447861;28;97406;-93
2023/06/18 08:20:10;;;;;;;4.70;2.20;;;24.80;64.00;;;24.06;41.72;99975.84;10438266;28;96408;-95
2023/06/18 08:25:14;;;;;;;2.55;1.77;;;25.00;63.20;;;24.22;41.45;99985.69;10436814;27;97408;-93
2023/06/18 08:30:18;;;;;;;6.07;2.70;;;25.20;62.00;;;24.34;41.14;99988.22;10418850;27;97382;-95
2023/06/18 08:35:22;;;;;;;4.45;2.25;;;25.30;62.20;;;24.50;41.21;99981.78;10422543;27;97374;-92
2023/06/18 08:40:34;;;;;;;4.60;2.58;;;25.50;62.60;;;24.54;39.70;99974.75;10440834;27;97720;-95
2023/06/18 08:45:41;;;;;;;18.33;6.47;;;25.60;60.70;;;24.63;39.60;99977.78;10422161;27;98248;-93
2023/06/18 08:50:45;;;;;;;3.60;2.67;;;25.60;60.20;;;24.81;39.98;99979.19;10408562;28;96688;-95
2023/06/18 08:55:49;;;;;;;24.77;9.20;;;25.70;60.40;;;24.85;40.00;99979.50;10425128;27;97219;-94
2023/06/18 09:00:54;;;;;;;14.25;5.35;;;25.80;60.60;;;24.99;39.98;99983.31;10420193;27;98370;-93
2023/06/18 09:05:58;;;;;;;7.95;3.83;;;26.00;60.90;;;25.09;39.46;99977.94;10402670;27;97630;-93
2023/06/18 09:11:03;;;;;;;10.38;4.10;;;26.10;60.40;;;25.11;39.21;99972.22;10403798;27;98403;-94
2023/06/18 09:16:11;;;;;;;5.07;3.22;;;26.20;59.90;;;25.23;39.02;99983.66;10396295;27;98119;-94
2023/06/18 09:21:38;;;;;;;9.18;4.15;;;26.30;59.40;;;25.30;38.80;99978.78;10424896;28;96897;-92
2023/06/18 09:26:42;;;;;;;31.30;10.43;;;26.30;59.70;;;25.35;38.34;99978.78;10408009;28;97713;-94
2023/06/18 09:31:46;;;;;;;31.80;10.45;;;26.40;59.00;;;25.54;38.67;99977.16;10408598;28;96574;-93
2023/06/18 09:36:50;;;;;;;31.75;9.98;;;26.50;59.20;;;25.73;38.01;99988.38;10400627;28;96628;-94
2023/06/18 09:41:55;;;;;;;4.68;2.90;;;26.70;58.90;;;25.83;38.07;99976.63;10425145;28;96536;-94
2023/06/18 09:46:59;;;;;;;6.30;3.20;;;26.90;58.80;;;25.91;38.09;99965.22;10404426;27;98618;-92
2023/06/18 09:52:05;;;;;;;5.80;2.50;;;27.00;58.90;;;25.97;37.89;99966.00;10417782;28;96691;-95
2023/06/18 09:57:13;;;;;;;3.97;2.83;;;27.00;57.60;;;26.05;37.47;99971.72;10408605;28;96581;-95
2023/06/18 10:02:25;;;;;;;4.10;3.03;;;27.10;57.50;;;26.02;36.66;99955.09;10407399;28;98267;-95
2023/06/18 10:07:29;;;;;;;5.57;2.70;;;27.10;57.00;;;26.11;36.22;99969.78;10383409;28;96546;-95
2023/06/18 10:12:34;;;;;;;3.28;2.83;;;27.20;56.70;;;26.19;37.00;99960.22;10403859;28;96584;-94
2023/06/18 10:17:46;;;;;;;4.18;2.67;;;27.20;56.80;;;26.31;37.74;99964.28;10401919;27;96550;-94
2023/06/18 10:22:59;;;;;;;4.75;2.97;;;27.30;57.80;;;26.45;37.55;99953.66;10408319;28;96564;-94
2023/06/18 10:28:03;;;;;;;4.63;2.88;;;27.50;57.70;;;26.68;37.14;99968.50;10408156;28;96835;-95
2023/06/18 10:33:10;;;;;;;4.28;3.00;;;27.70;57.40;;;26.68;36.05;99963.88;10382933;28;97305;-96
2023/06/18 10:38:15;;;;;;;3.83;3.05;;;27.70;56.20;;;26.76;36.96;99964.41;10413086;27;96609;-93
2023/06/18 10:43:24;;;;;;;3.90;3.10;;;27.70;57.30;;;26.80;37.47;99954.56;10405779;27;98393;-94
2023/06/18 10:48:28;;;;;;;3.75;3.30;;;27.80;57.60;;;26.92;37.29;99964.03;10394381;28;96703;-95
2023/06/18 10:53:31;;;;;;;4.75;3.00;;;27.90;57.20;;;26.91;36.53;99962.41;10422644;27;96544;-95
2023/06/18 10:58:40;;;;;;;5.95;3.25;;;27.90;56.60;;;26.98;36.49;99956.63;10404399;28;96612;-94
2023/06/18 11:03:43;;;;;;;4.57;3.10;;;28.00;56.60;;;26.88;36.34;99952.06;10404946;27;96602;-94
2023/06/18 11:08:47;;;;;;;4.40;3.22;;;27.90;55.90;;;26.90;37.95;99955.31;10401663;27;97469;-94
2023/06/18 11:13:53;;;;;;;4.10;3.00;;;27.90;57.30;;;27.05;37.32;99950.84;10407859;28;96582;-93
2023/06/18 11:19:02;;;;;;;3.67;2.97;;;28.00;56.90;;;27.12;37.78;99952.22;10406386;28;97385;-94
2023/06/18 11:24:11;;;;;;;4.70;3.88;;;28.10;57.40;;;27.21;36.63;99952.41;10403314;28;97951;-94
2023/06/18 11:29:15;;;;;;;3.95;3.20;;;28.30;56.50;;;27.27;37.26;99950.47;10400368;27;96770;-94
2023/06/18 11:34:18;;;;;;;6.85;3.13;;;28.30;57.30;;;27.42;37.99;99950.38;10419401;27;97688;-94
2023/06/18 11:39:24;;;;;;;4.03;3.30;;;28.40;57.50;;;27.48;37.49;99939.13;10411688;27;97243;-94
2023/06/18 11:44:27;;;;;;;5.05;3.70;;;28.50;57.20;;;27.50;36.44;99916.19;10402201;27;97248;-94
2023/06/18 11:49:31;;;;;;;5.25;3.65;;;28.60;56.10;;;27.38;36.61;99933.75;10383616;27;97003;-92
2023/06/18 11:54:41;;;;;;;3.58;3.15;;;28.40;56.20;;;27.16;37.92;99927.91;10408041;28;96604;-95
2023/06/18 11:59:46;;;;;;;7.55;3.30;;;28.10;57.60;;;27.18;38.51;99942.09;10412852;28;97373;-94
2023/06/18 12:04:51;;;;;;;3.83;3.40;;;28.10;57.60;;;27.16;37.64;99914.28;10384584;28;96897;-94
2023/06/18 12:09:59;;;;;;;5.15;3.30;;;28.30;57.10;;;27.30;37.02;99915.28;10423188;27;97289;-95
2023/06/18 12:16:05;;;;;;;5.67;3.33;;;28.60;56.20;;;27.39;35.16;99926.38;10412803;28;96824;-96
2023/06/18 12:21:09;;;;;;;4.65;3.42;;;28.90;54.60;;;27.36;35.30;99905.94;10379788;27;96828;-94
2023/06/18 12:26:13;;;;;;;5.93;3.90;;;29.30;53.60;;;27.86;35.69;99922.97;10391404;28;96558;-93
2023/06/18 12:31:17;;;;;;;3.75;3.17;;;29.80;53.80;;;28.36;33.79;99898.91;10429719;27;97071;-95
2023/06/18 12:36:29;;;;;;;4.63;3.50;;;30.70;52.80;;;29.01;32.19;99909.25;10409876;27;97916;-94
2023/06/18 12:41:36;;;;;;;4.63;3.20;;;31.40;51.00;;;29.51;33.09;99891.19;10393530;28;96624;-95
2023/06/18 12:46:43;;;;;;;4.10;3.22;;;31.60;51.50;;;29.96;30.48;99890.66;10422280;27;97027;-93
2023/06/18 12:51:48;;;;;;;5.40;3.40;;;31.80;49.80;;;30.02;31.21;99884.75;10411212;27;96621;-95
2023/06/18 12:56:54;;;;;;;4.97;3.40;;;31.60;50.30;;;30.12;30.20;99881.03;10427327;27;97048;-94
2023/06/18 13:01:58;;;;;;;3.42;3.05;;;31.40;49.60;;;30.09;30.29;99890.63;10426487;27;96599;-94
2023/06/18 13:07:03;;;;;;;3.60;3.15;;;31.30;49.50;;;30.03;30.62;99878.16;10399283;27;97669;-93
2023/06/18 13:12:08;;;;;;;3.63;3.05;;;31.30;49.70;;;29.90;31.88;99875.44;10374350;28;96606;-95
2023/06/18 13:17:14;;;;;;;5.18;3.40;;;31.10;50.70;;;29.79;30.23;99886.56;10407846;27;96663;-95
2023/06/18 13:22:18;;;;;;;5.10;3.00;;;31.00;50.10;;;29.62;32.16;99886.34;10409895;27;96795;-94
2023/06/18 13:27:22;;;;;;;3.25;2.90;;;30.70;50.70;;;29.69;31.56;99880.47;10424689;28;96643;-95
2023/06/18 13:32:26;;;;;;;4.82;3.28;;;30.80;50.80;;;29.57;30.87;99887.28;10386959;27;96500;-94
2023/06/18 13:37:31;;;;;;;3.65;3.08;;;30.60;49.80;;;29.54;30.13;99890.59;10403816;28;96858;-95
2023/06/18 13:42:35;;;;;;;3.47;3.03;;;30.40;49.20;;;29.37;31.02;99876.63;10418008;27;96653;-93
2023/06/18 13:47:38;;;;;;;3.92;3.20;;;30.20;49.50;;;29.23;31.08;99871.13;10423445;27;96800;-92
2023/06/18 13:52:42;;;;;;;3.80;2.97;;;30.00;50.00;;;29.20;31.80;99865.44;10406671;28;97333;-95
2023/06/18 13:57:46;;;;;;;4.80;3.40;;;30.00;50.60;;;29.26;31.24;99873.25;10388540;27;98082;-94
2023/06/18 14:02:49;;;;;;;3.58;3.15;;;30.00;50.40;;;29.27;31.79;99868.63;10378407;28;97098;-92
2023/06/18 14:07:53;;;;;;;5.53;3.13;;;30.00;50.60;;;29.15;31.48;99865.50;10405947;28;96643;-93
2023/06/18 14:12:57;;;;;;;6.30;3.33;;;30.00;50.30;;;29.15;29.62;99868.25;10399574;28;97042;-91
2023/06/18 14:18:01;;;;;;;3.78;3.00;;;30.00;49.00;;;28.92;31.54;99873.56;10394168;27;96637;-94
2023/06/18 14:23:04;;;;;;;3.78;3.38;;;29.80;49.50;;;28.85;31.00;99875.81;10410847;27;96733;-92
2023/06/18 14:28:08;;;;;;;3.88;3.20;;;29.80;49.70;;;28.82;31.02;99868.19;10406245;27;96776;-93
2023/06/18 14:33:12;;;;;;;4.65;3.42;;;29.70;49.60;;;28.80;31.19;99868.50;10404189;27;98261;-93
2023/06/18 14:38:16;;;;;;;4.95;3.60;;;29.80;49.60;;;28.77;31.92;99865.53;10419101;27;98367;-93
2023/06/18 14:43:21;;;;;;;4.75;3.17;;;29.70;50.00;;;28.79;31.33;99866.88;10424854;27;96636;-90
2023/06/18 14:48:25;;;;;;;4.82;3.00;;;29.80;49.40;;;28.77;31.44;99881.94;10428283;27;97347;-91
2023/06/18 14:53:28;;;;;;;5.32;2.72;;;29.80;49.50;;;28.79;29.85;99866.06;10449377;28;96497;-92
2023/06/18 14:58:32;;;;;;;6.07;2.88;;;29.80;48.10;;;28.83;29.67;99869.81;10413094;27;98679;-92
2023/06/18 15:03:36;;;;;;;5.10;2.90;;;29.90;47.50;;;28.90;29.90;99862.03;10400617;27;98554;-95
2023/06/18 15:08:41;;;;;;;4.57;2.70;;;30.10;47.90;;;28.91;30.17;99871.91;10397814;28;96766;-95
2023/06/18 15:13:45;;;;;;;3.42;3.13;;;30.00;48.30;;;28.97;30.95;99854.34;10402902;28;96669;-96
2023/06/18 15:18:51;;;;;;;3.88;2.65;;;30.10;48.80;;;29.01;28.96;99860.81;10397499;27;96606;-94
2023/06/18 15:23:56;;;;;;;3.85;2.80;;;30.10;47.00;;;28.97;29.34;99857.06;10375270;28;96791;-95
2023/06/18 15:29:00;;;;;;;4.57;3.10;;;30.20;47.00;;;28.97;29.67;99859.81;10405103;27;97388;-95
2023/06/18 15:34:04;;;;;;;2.88;2.50;;;30.40;47.70;;;29.22;30.94;99857.75;10405760;27;96637;-96
2023/06/18 15:39:12;;;;;;;3.40;2.83;;;30.70;48.30;;;29.49;30.49;99860.53;10405520;27;96694;-96
2023/06/18 15:44:16;;;;;;;4.63;3.17;;;31.10;48.20;;;29.60;29.88;99858.47;10409034;28;96643;-96
2023/06/18 15:49:22;;;;;;;4.18;2.95;;;31.30;47.40;;;29.73;29.89;99854.91;10404867;27;96421;-95
2023/06/18 15:54:27;;;;;;;4.75;2.83;;;31.20;47.70;;;29.84;29.33;99859.09;10403329;27;97966;-96
2023/06/18 15:59:30;;;;;;;3.58;3.25;;;31.10;47.50;;;29.62;29.63;99849.94;10398709;27;97824;-96
2023/06/18 16:04:34;;;;;;;3.72;2.80;;;30.70;47.30;;;29.44;30.80;99857.88;10400473;27;97065;-96
2023/06/18 16:09:37;;;;;;;4.10;3.28;;;30.30;48.50;;;29.06;30.47;99858.00;10402118;27;97042;-95
2023/06/18 16:14:44;;;;;;;4.38;2.72;;;29.90;48.20;;;28.78;29.82;99867.16;10412690;27;97178;-95
2023/06/18 16:19:49;;;;;;;5.13;3.10;;;29.50;47.90;;;28.50;30.58;99872.50;10387962;27;97492;-96
2023/06/18 16:24:53;;;;;;;4.25;2.67;;;29.30;48.40;;;28.31;31.78;99868.91;10400140;27;98041;-94
2023/06/18 16:29:57;;;;;;;6.45;3.13;;;29.00;49.40;;;28.10;32.06;99870.25;10394657;28;97308;-93
2023/06/18 16:35:00;;;;;;;5.07;3.08;;;28.80;49.80;;;27.87;31.93;99866.44;10380903;27;97752;-92
2023/06/18 16:40:05;;;;;;;4.18;3.40;;;28.60;49.70;;;27.80;32.63;99885.88;10406722;28;96670;-93
2023/06/18 16:45:10;;;;;;;6.00;3.33;;;28.40;50.30;;;27.72;32.48;99881.06;10391038;27;96661;-94
2023/06/18 16:50:14;;;;;;;4.28;3.22;;;28.40;50.20;;;27.62;33.21;99881.13;10415927;28;96616;-95
2023/06/18 16:55:18;;;;;;;4.97;3.40;;;28.30;50.50;;;27.64;33.23;99887.91;10398052;28;97459;-95
2023/06/18 17:00:22;;;;;;;5.15;3.40;;;28.40;50.50;;;27.62;33.09;99895.59;10413531;27;97457;-94
2023/06/18 17:05:26;;;;;;;3.83;3.10;;;28.40;50.40;;;27.60;34.32;99881.44;10397335;27;97004;-94
2023/06/18 17:10:30;;;;;;;4.07;3.15;;;28.50;51.40;;;27.64;33.70;99896.09;10419836;28;96596;-94
2023/06/18 17:15:33;;;;;;;10.18;3.80;;;28.60;51.20;;;27.47;34.23;99903.94;10387907;27;96602;-94
2023/06/18 17:20:37;;;;;;;4.05;3.42;;;28.50;51.20;;;27.37;34.53;99904.03;10406882;28;97647;-94
2023/06/18 17:25:41;;;;;;;7.15;3.40;;;28.30;51.70;;;27.20;35.18;99904.44;10416671;28;96561;-94
2023/06/18 17:30:45;;;;;;;8.30;3.50;;;28.20;52.10;;;26.88;35.61;99902.19;10420905;28;98630;-94
2023/06/18 17:35:48;;;;;;;4.50;3.63;;;27.80;52.70;;;26.44;36.63;99900.22;10422569;28;98188;-94
2023/06/18 17:40:53;;;;;;;5.10;3.53;;;27.40;53.40;;;26.15;37.92;99908.25;10403384;28;96698;-96
2023/06/18 17:46:16;;;;;;;4.75;3.60;;;27.00;54.10;;;25.82;38.34;99901.53;10404340;27;97242;-96
2023/06/18 17:51:19;;;;;;;7.50;3.25;;;26.70;55.00;;;25.52;39.42;99905.09;10400229;28;96814;-96
2023/06/18 17:56:23;;;;;;;3.55;3.00;;;26.30;55.70;;;25.25;40.43;99900.75;10403566;28;96586;-95
2023/06/18 18:01:27;;;;;;;5.57;3.45;;;26.10;56.70;;;24.96;41.50;99900.44;10394352;28;96660;-95
2023/06/18 18:06:30;;;;;;;4.95;3.92;;;25.90;58.00;;;24.65;42.84;99910.41;10384462;27;97492;-96
2023/06/18 18:11:34;;;;;;;4.20;3.30;;;25.70;58.50;;;24.33;44.22;99912.44;10427103;28;96503;-96
2023/06/18 18:16:37;;;;;;;6.07;3.28;;;25.40;59.00;;;24.06;44.30;99918.03;10401467;28;97624;-94
2023/06/18 18:21:42;;;;;;;4.97;3.30;;;25.10;59.40;;;23.72;44.54;99918.34;10408799;27;97640;-94
2023/06/18 18:26:45;;;;;;;5.57;3.85;;;24.80;59.80;;;23.50;45.33;99931.97;10407169;27;96602;-93
2023/06/18 18:31:54;;;;;;;5.70;3.70;;;24.50;60.10;;;23.19;46.07;99941.75;10402781;28;98436;-94
2023/06/18 18:36:58;;;;;;;5.15;4.15;;;24.30;61.10;;;22.91;46.46;99935.53;10421808;27;96839;-93
2023/06/18 18:42:05;;;;;;;7.72;3.75;;;23.90;61.70;;;22.65;47.90;99939.81;10415551;27;98102;-95
2023/06/18 18:47:09;;;;;;;4.07;3.55;;;23.70;62.70;;;22.33;49.02;99945.13;10394166;27;98830;-94
2023/06/18 18:52:12;;;;;;;7.63;4.28;;;23.30;63.80;;;22.11;49.40;99952.41;10391310;28;97837;-94
2023/06/18 18:57:17;;;;;;;6.53;4.30;;;23.10;64.40;;;21.82;49.85;99962.47;10378917;28;96654;-93
2023/06/18 19:02:22;;;;;;;6.38;3.92;;;22.80;65.10;;;21.59;50.51;99964.31;10409157;28;97581;-94
2023/06/18 19:07:26;;;;;;;4.28;3.88;;;22.60;65.70;;;21.44;50.80;99969.47;10404223;28;96449;-94
2023/06/18 19:12:29;;;;;;;5.78;4.47;;;22.40;66.50;;;21.32;51.04;99976.81;10394858;28;96618;-94
2023/06/18 19:17:33;;;;;;;5.35;4.43;;;22.30;66.20;;;21.11;51.78;99976.44;10401930;27;98315;-94
2023/06/18 19:22:37;;;;;;;7.63;4.32;;;22.10;66.90;;;21.01;52.47;99995.16;10379394;28;97798;-94
2023/06/18 19:27:42;;;;;;;9.90;4.22;;;21.90;67.50;;;20.90;53.79;100006.00;10407891;27;96611;-94
2023/06/18 19:32:45;;;;;;;6.85;4.53;;;21.80;68.40;;;20.71;54.58;100003.47;10419074;27;96545;-93
2023/06/18 19:37:49;;;;;;;6.65;4.47;;;21.60;69.20;;;20.63;54.90;100005.72;10404946;28;96603;-94
2023/06/18 19:42:52;;;;;;;7.90;4.70;;;21.50;69.70;;;20.55;55.33;100010.41;10403014;28;96616;-94
2023/06/18 20:03:13;;;;;;;4.85;3.72;;;21.40;69.20;;;20.87;53.21;100017.25;12591427;22;1457108;-93
2023/06/18 20:08:17;;;;;;;6.03;3.40;;;21.80;68.40;;;20.94;52.83;100028.78;12550810;23;96476;-95
2023/06/18 20:13:21;;;;;;;7.45;4.50;;;21.80;68.40;;;20.81;55.39;100029.84;12547758;23;96769;-96
2023/06/18 20:18:24;;;;;;;7.43;4.63;;;21.70;70.00;;;20.65;57.03;100030.59;12523624;23;96555;-95
2023/06/18 20:23:30;;;;;;;5.45;4.00;;;21.50;70.70;;;20.43;57.71;100033.88;12546618;23;96524;-96
2023/06/18 20:28:34;;;;;;;4.82;3.63;;;21.40;71.20;;;20.27;58.17;100037.28;12522107;23;96452;-96
2023/06/18 20:33:39;;;;;;;5.63;3.97;;;21.20;71.80;;;20.06;58.83;100036.00;12521509;23;96505;-96
2023/06/18 20:38:43;;;;;;;4.57;3.90;;;21.00;72.20;;;19.87;59.20;100032.59;12523167;23;96455;-95
2023/06/18 20:43:47;;;;;;;5.78;3.80;;;20.90;73.00;;;19.76;59.72;100041.47;12545496;23;96500;-96
2023/06/18 20:48:50;;;;;;;8.30;4.00;;;20.70;73.40;;;19.64;60.58;100052.25;12523632;23;96425;-95
2023/06/18 20:53:58;;;;;;;5.50;3.72;;;20.70;73.80;;;19.49;61.13;100041.03;12547626;23;96464;-96
2023/06/18 20:59:02;;;;;;;4.78;4.28;;;20.60;74.20;;;19.39;61.98;100046.16;12547267;23;96535;-96
2023/06/18 21:04:06;;;;;;;4.25;3.72;;;20.40;74.70;;;19.29;62.86;100052.09;12510203;23;97209;-96
2023/06/18 21:09:09;;;;;;;5.38;4.22;;;20.30;75.30;;;19.07;63.73;100038.31;12509918;23;96469;-95
2023/06/18 21:14:13;;;;;;;6.28;4.50;;;20.10;75.80;;;18.93;64.35;100061.88;12509627;23;97484;-95
2023/06/18 21:19:19;;;;;;;6.45;4.65;;;19.90;76.70;;;18.72;65.43;100048.91;12509992;23;96441;-96